sensor_id;sensor_type;location;lat;lon;timestamp;pressure;altitude;pressure_sealevel;temperature;humidity
34235;BME280;20500;49.856;20.290;2023-02-10T00:02:52;100633.09;;;-4.07;65.01
34235;BME280;20500;49.856;20.290;2023-02-10T00:05:56;100636.31;;;-4.08;65.03
34235;BME280;20500;49.856;20.290;2023-02-10T00:09:03;100633.90;;;-4.10;64.91
34235;BME280;20500;49.856;20.290;2023-02-10T00:12:09;100631.30;;;-4.12;64.95
34235;BME280;20500;49.856;20.290;2023-02-10T00:15:17;100631.58;;;-4.15;64.85
34235;BME280;20500;49.856;20.290;2023-02-10T00:18:23;100634.44;;;-4.16;64.89
34235;BME280;20500;49.856;20.290;2023-02-10T00:21:30;100633.38;;;-4.15;64.93
34235;BME280;20500;49.856;20.290;2023-02-10T00:24:37;100631.42;;;-4.16;64.84
34235;BME280;20500;49.856;20.290;2023-02-10T00:27:43;100631.63;;;-4.17;64.74
34235;BME280;20500;49.856;20.290;2023-02-10T00:30:48;100620.90;;;-4.19;64.94
34235;BME280;20500;49.856;20.290;2023-02-10T00:33:54;100612.45;;;-4.21;65.07
34235;BME280;20500;49.856;20.290;2023-02-10T00:37:00;100614.92;;;-4.26;64.91
34235;BME280;20500;49.856;20.290;2023-02-10T00:40:08;100621.23;;;-4.34;64.82
34235;BME280;20500;49.856;20.290;2023-02-10T00:43:14;100620.10;;;-4.43;64.83
34235;BME280;20500;49.856;20.290;2023-02-10T00:46:22;100619.80;;;-4.51;64.87
34235;BME280;20500;49.856;20.290;2023-02-10T00:49:29;100623.88;;;-4.56;64.91
34235;BME280;20500;49.856;20.290;2023-02-10T00:52:33;100620.64;;;-4.66;64.88
34235;BME280;20500;49.856;20.290;2023-02-10T00:55:40;100622.98;;;-4.78;65.02
34235;BME280;20500;49.856;20.290;2023-02-10T00:58:44;100619.69;;;-4.86;65.04
34235;BME280;20500;49.856;20.290;2023-02-10T01:01:51;100620.27;;;-4.82;65.10
34235;BME280;20500;49.856;20.290;2023-02-10T01:04:57;100631.77;;;-4.71;65.09
34235;BME280;20500;49.856;20.290;2023-02-10T01:08:04;100636.58;;;-4.60;65.08
34235;BME280;20500;49.856;20.290;2023-02-10T01:11:11;100640.57;;;-4.46;64.91
34235;BME280;20500;49.856;20.290;2023-02-10T01:14:18;100640.66;;;-4.32;64.82
34235;BME280;20500;49.856;20.290;2023-02-10T01:17:25;100639.04;;;-4.21;64.75
34235;BME280;20500;49.856;20.290;2023-02-10T01:20:31;100639.79;;;-4.11;64.72
34235;BME280;20500;49.856;20.290;2023-02-10T01:23:37;100639.72;;;-4.04;64.66
34235;BME280;20500;49.856;20.290;2023-02-10T01:26:44;100635.52;;;-3.96;64.69
34235;BME280;20500;49.856;20.290;2023-02-10T01:29:50;100629.22;;;-3.87;64.66
34235;BME280;20500;49.856;20.290;2023-02-10T01:32:56;100628.77;;;-3.79;64.58
34235;BME280;20500;49.856;20.290;2023-02-10T01:36:06;100626.67;;;-3.75;64.54
34235;BME280;20500;49.856;20.290;2023-02-10T01:39:13;100623.05;;;-3.73;64.52
34235;BME280;20500;49.856;20.290;2023-02-10T01:42:21;100619.20;;;-3.75;64.48
34235;BME280;20500;49.856;20.290;2023-02-10T01:45:26;100613.77;;;-3.76;64.54
34235;BME280;20500;49.856;20.290;2023-02-10T01:48:33;100604.34;;;-3.81;64.55
34235;BME280;20500;49.856;20.290;2023-02-10T01:51:42;100595.58;;;-3.84;64.61
34235;BME280;20500;49.856;20.290;2023-02-10T01:54:53;100592.48;;;-3.86;64.53
34235;BME280;20500;49.856;20.290;2023-02-10T01:58:00;100586.73;;;-3.90;64.43
34235;BME280;20500;49.856;20.290;2023-02-10T02:01:08;100571.03;;;-3.92;64.47
34235;BME280;20500;49.856;20.290;2023-02-10T02:04:14;100561.02;;;-3.90;64.40
34235;BME280;20500;49.856;20.290;2023-02-10T02:07:26;100558.45;;;-3.87;64.40
34235;BME280;20500;49.856;20.290;2023-02-10T02:10:40;100559.02;;;-3.83;64.41
34235;BME280;20500;49.856;20.290;2023-02-10T02:14:01;100560.52;;;-3.80;64.20
34235;BME280;20500;49.856;20.290;2023-02-10T02:17:17;100553.54;;;-3.79;64.26
34235;BME280;20500;49.856;20.290;2023-02-10T02:24:23;100552.94;;;-3.82;64.20
34235;BME280;20500;49.856;20.290;2023-02-10T02:28:13;100550.29;;;-3.82;64.17
34235;BME280;20500;49.856;20.290;2023-02-10T02:31:53;100551.87;;;-3.82;64.17
34235;BME280;20500;49.856;20.290;2023-02-10T02:35:04;100548.06;;;-3.84;64.19
34235;BME280;20500;49.856;20.290;2023-02-10T02:38:13;100545.67;;;-3.87;64.26
34235;BME280;20500;49.856;20.290;2023-02-10T02:41:23;100553.20;;;-3.88;64.19
34235;BME280;20500;49.856;20.290;2023-02-10T02:44:29;100549.04;;;-3.92;64.26
34235;BME280;20500;49.856;20.290;2023-02-10T02:47:41;100551.22;;;-3.88;64.32
34235;BME280;20500;49.856;20.290;2023-02-10T02:50:55;100546.58;;;-3.82;64.29
34235;BME280;20500;49.856;20.290;2023-02-10T02:54:14;100545.88;;;-3.77;64.26
34235;BME280;20500;49.856;20.290;2023-02-10T02:57:26;100549.31;;;-3.75;64.21
34235;BME280;20500;49.856;20.290;2023-02-10T03:00:35;100553.48;;;-3.72;64.15
34235;BME280;20500;49.856;20.290;2023-02-10T03:03:43;100550.98;;;-3.72;64.12
34235;BME280;20500;49.856;20.290;2023-02-10T03:06:49;100554.79;;;-3.74;64.16
34235;BME280;20500;49.856;20.290;2023-02-10T03:09:56;100558.70;;;-3.75;64.23
34235;BME280;20500;49.856;20.290;2023-02-10T03:13:00;100558.13;;;-3.78;64.18
34235;BME280;20500;49.856;20.290;2023-02-10T03:16:07;100555.86;;;-3.84;64.31
34235;BME280;20500;49.856;20.290;2023-02-10T03:19:13;100555.22;;;-3.91;64.30
34235;BME280;20500;49.856;20.290;2023-02-10T03:22:18;100551.16;;;-3.97;64.44
34235;BME280;20500;49.856;20.290;2023-02-10T03:25:24;100556.45;;;-4.01;64.22
34235;BME280;20500;49.856;20.290;2023-02-10T03:28:30;100557.63;;;-4.04;64.39
34235;BME280;20500;49.856;20.290;2023-02-10T03:31:35;100559.88;;;-4.07;64.27
34235;BME280;20500;49.856;20.290;2023-02-10T03:34:41;100560.91;;;-4.12;64.35
34235;BME280;20500;49.856;20.290;2023-02-10T03:37:48;100560.84;;;-4.14;64.30
34235;BME280;20500;49.856;20.290;2023-02-10T03:40:54;100563.08;;;-4.18;64.29
34235;BME280;20500;49.856;20.290;2023-02-10T03:44:01;100563.02;;;-4.22;64.29
34235;BME280;20500;49.856;20.290;2023-02-10T03:47:07;100566.11;;;-4.24;64.35
34235;BME280;20500;49.856;20.290;2023-02-10T03:50:11;100567.82;;;-4.27;64.37
34235;BME280;20500;49.856;20.290;2023-02-10T03:53:18;100574.31;;;-4.30;64.44
34235;BME280;20500;49.856;20.290;2023-02-10T03:56:22;100577.20;;;-4.32;64.36
34235;BME280;20500;49.856;20.290;2023-02-10T03:59:28;100576.83;;;-4.32;64.19
34235;BME280;20500;49.856;20.290;2023-02-10T04:02:35;100576.48;;;-4.32;64.21
34235;BME280;20500;49.856;20.290;2023-02-10T04:05:39;100583.17;;;-4.30;64.29
34235;BME280;20500;49.856;20.290;2023-02-10T04:08:46;100582.23;;;-4.34;64.26
34235;BME280;20500;49.856;20.290;2023-02-10T04:11:52;100580.05;;;-4.43;64.19
34235;BME280;20500;49.856;20.290;2023-02-10T04:14:58;100576.20;;;-4.50;64.23
34235;BME280;20500;49.856;20.290;2023-02-10T04:18:04;100575.79;;;-4.53;64.20
34235;BME280;20500;49.856;20.290;2023-02-10T04:21:10;100579.96;;;-4.57;64.33
34235;BME280;20500;49.856;20.290;2023-02-10T04:24:16;100582.10;;;-4.63;64.31
34235;BME280;20500;49.856;20.290;2023-02-10T04:27:22;100579.46;;;-4.69;64.22
34235;BME280;20500;49.856;20.290;2023-02-10T04:30:27;100578.56;;;-4.74;64.40
34235;BME280;20500;49.856;20.290;2023-02-10T04:33:33;100581.65;;;-4.76;64.49
34235;BME280;20500;49.856;20.290;2023-02-10T04:36:38;100582.42;;;-4.78;64.47
34235;BME280;20500;49.856;20.290;2023-02-10T04:39:44;100589.22;;;-4.80;64.52
34235;BME280;20500;49.856;20.290;2023-02-10T04:42:49;100591.00;;;-4.80;64.58
34235;BME280;20500;49.856;20.290;2023-02-10T04:45:55;100589.21;;;-4.80;64.57
34235;BME280;20500;49.856;20.290;2023-02-10T04:48:59;100586.39;;;-4.80;64.65
34235;BME280;20500;49.856;20.290;2023-02-10T04:52:06;100590.82;;;-4.81;64.57
34235;BME280;20500;49.856;20.290;2023-02-10T04:55:12;100596.59;;;-4.84;64.55
34235;BME280;20500;49.856;20.290;2023-02-10T04:58:16;100596.33;;;-4.87;64.67
34235;BME280;20500;49.856;20.290;2023-02-10T05:01:23;100600.11;;;-4.89;64.68
34235;BME280;20500;49.856;20.290;2023-02-10T05:04:29;100604.73;;;-4.90;64.53
34235;BME280;20500;49.856;20.290;2023-02-10T05:07:35;100606.67;;;-4.90;64.58
34235;BME280;20500;49.856;20.290;2023-02-10T05:10:42;100610.35;;;-4.88;64.69
34235;BME280;20500;49.856;20.290;2023-02-10T05:13:48;100615.58;;;-4.85;64.71
34235;BME280;20500;49.856;20.290;2023-02-10T05:16:53;100619.95;;;-4.83;64.74
34235;BME280;20500;49.856;20.290;2023-02-10T05:19:59;100617.98;;;-4.83;64.80
34235;BME280;20500;49.856;20.290;2023-02-10T05:23:03;100617.17;;;-4.79;64.80
34235;BME280;20500;49.856;20.290;2023-02-10T05:26:10;100619.70;;;-4.75;64.74
34235;BME280;20500;49.856;20.290;2023-02-10T05:29:14;100618.73;;;-4.72;64.72
34235;BME280;20500;49.856;20.290;2023-02-10T05:32:21;100619.09;;;-4.73;64.78
34235;BME280;20500;49.856;20.290;2023-02-10T05:35:27;100622.02;;;-4.76;64.88
34235;BME280;20500;49.856;20.290;2023-02-10T05:38:33;100620.45;;;-4.77;64.86
34235;BME280;20500;49.856;20.290;2023-02-10T05:41:38;100623.20;;;-4.79;64.82
34235;BME280;20500;49.856;20.290;2023-02-10T05:44:44;100626.36;;;-4.85;64.84
34235;BME280;20500;49.856;20.290;2023-02-10T05:47:48;100626.37;;;-4.91;65.00
34235;BME280;20500;49.856;20.290;2023-02-10T05:50:56;100626.11;;;-4.94;65.01
34235;BME280;20500;49.856;20.290;2023-02-10T05:54:02;100616.35;;;-4.99;65.00
34235;BME280;20500;49.856;20.290;2023-02-10T05:57:09;100616.99;;;-5.03;65.14
34235;BME280;20500;49.856;20.290;2023-02-10T06:00:18;100623.73;;;-5.04;65.21
34235;BME280;20500;49.856;20.290;2023-02-10T06:03:24;100633.43;;;-5.07;65.06
34235;BME280;20500;49.856;20.290;2023-02-10T06:06:31;100635.72;;;-5.19;64.92
34235;BME280;20500;49.856;20.290;2023-02-10T06:09:35;100638.71;;;-5.31;65.06
34235;BME280;20500;49.856;20.290;2023-02-10T06:12:44;100637.00;;;-5.40;65.05
34235;BME280;20500;49.856;20.290;2023-02-10T06:15:48;100632.13;;;-5.49;65.03
34235;BME280;20500;49.856;20.290;2023-02-10T06:18:55;100633.98;;;-5.58;65.23
34235;BME280;20500;49.856;20.290;2023-02-10T06:22:01;100636.48;;;-5.66;65.19
34235;BME280;20500;49.856;20.290;2023-02-10T06:25:08;100636.16;;;-5.73;65.18
34235;BME280;20500;49.856;20.290;2023-02-10T06:28:15;100632.48;;;-5.81;65.17
34235;BME280;20500;49.856;20.290;2023-02-10T06:31:21;100632.77;;;-5.84;65.35
34235;BME280;20500;49.856;20.290;2023-02-10T06:34:28;100635.86;;;-5.88;65.30
34235;BME280;20500;49.856;20.290;2023-02-10T06:37:34;100641.55;;;-5.89;65.33
34235;BME280;20500;49.856;20.290;2023-02-10T06:40:41;100638.08;;;-5.92;65.30
34235;BME280;20500;49.856;20.290;2023-02-10T06:43:45;100641.04;;;-5.96;65.31
34235;BME280;20500;49.856;20.290;2023-02-10T06:46:52;100640.95;;;-6.00;65.25
34235;BME280;20500;49.856;20.290;2023-02-10T06:49:56;100646.28;;;-6.01;65.44
34235;BME280;20500;49.856;20.290;2023-02-10T06:53:03;100647.98;;;-6.05;65.43
34235;BME280;20500;49.856;20.290;2023-02-10T06:56:07;100649.25;;;-6.13;65.50
34235;BME280;20500;49.856;20.290;2023-02-10T06:59:14;100650.48;;;-6.20;65.60
34235;BME280;20500;49.856;20.290;2023-02-10T07:02:21;100650.23;;;-6.24;65.64
34235;BME280;20500;49.856;20.290;2023-02-10T07:05:27;100652.09;;;-6.27;65.79
34235;BME280;20500;49.856;20.290;2023-02-10T07:08:32;100653.30;;;-6.27;65.82
34235;BME280;20500;49.856;20.290;2023-02-10T07:11:38;100651.38;;;-6.28;65.78
34235;BME280;20500;49.856;20.290;2023-02-10T07:14:45;100655.20;;;-6.26;65.83
34235;BME280;20500;49.856;20.290;2023-02-10T07:17:52;100658.85;;;-6.22;65.76
34235;BME280;20500;49.856;20.290;2023-02-10T07:20:58;100660.51;;;-6.19;65.76
34235;BME280;20500;49.856;20.290;2023-02-10T07:24:02;100666.59;;;-6.14;65.86
34235;BME280;20500;49.856;20.290;2023-02-10T07:27:09;100672.44;;;-6.07;66.08
34235;BME280;20500;49.856;20.290;2023-02-10T07:30:13;100670.82;;;-6.00;66.01
34235;BME280;20500;49.856;20.290;2023-02-10T07:33:20;100672.44;;;-5.94;66.12
34235;BME280;20500;49.856;20.290;2023-02-10T07:36:24;100669.87;;;-5.84;66.22
34235;BME280;20500;49.856;20.290;2023-02-10T07:39:31;100663.21;;;-5.73;66.28
34235;BME280;20500;49.856;20.290;2023-02-10T07:42:37;100660.23;;;-5.61;66.38
34235;BME280;20500;49.856;20.290;2023-02-10T07:45:43;100659.05;;;-5.44;66.37
34235;BME280;20500;49.856;20.290;2023-02-10T07:48:50;100656.61;;;-5.20;66.42
34235;BME280;20500;49.856;20.290;2023-02-10T07:51:54;100661.20;;;-4.95;66.47
34235;BME280;20500;49.856;20.290;2023-02-10T07:55:01;100663.83;;;-4.65;66.45
34235;BME280;20500;49.856;20.290;2023-02-10T07:58:09;100660.66;;;-4.37;66.40
34235;BME280;20500;49.856;20.290;2023-02-10T08:01:13;100659.72;;;-4.14;66.36
34235;BME280;20500;49.856;20.290;2023-02-10T08:04:19;100664.02;;;-3.94;66.27
34235;BME280;20500;49.856;20.290;2023-02-10T08:07:24;100668.70;;;-3.75;66.35
34235;BME280;20500;49.856;20.290;2023-02-10T08:10:31;100680.91;;;-3.58;66.31
34235;BME280;20500;49.856;20.290;2023-02-10T08:13:37;100687.66;;;-3.43;66.23
34235;BME280;20500;49.856;20.290;2023-02-10T08:16:43;100692.49;;;-3.29;66.29
34235;BME280;20500;49.856;20.290;2023-02-10T08:19:48;100687.14;;;-3.19;66.19
34235;BME280;20500;49.856;20.290;2023-02-10T08:22:56;100690.19;;;-3.10;66.33
34235;BME280;20500;49.856;20.290;2023-02-10T08:26:05;100696.61;;;-3.01;66.30
34235;BME280;20500;49.856;20.290;2023-02-10T08:29:12;100701.07;;;-2.92;66.23
34235;BME280;20500;49.856;20.290;2023-02-10T08:32:16;100701.87;;;-2.84;66.37
34235;BME280;20500;49.856;20.290;2023-02-10T08:35:24;100693.55;;;-2.76;66.36
34235;BME280;20500;49.856;20.290;2023-02-10T08:38:33;100689.05;;;-2.66;66.29
34235;BME280;20500;49.856;20.290;2023-02-10T08:41:40;100690.09;;;-2.55;66.35
34235;BME280;20500;49.856;20.290;2023-02-10T08:44:44;100693.91;;;-2.44;66.31
34235;BME280;20500;49.856;20.290;2023-02-10T08:47:51;100692.23;;;-2.33;66.27
34235;BME280;20500;49.856;20.290;2023-02-10T08:50:57;100696.88;;;-2.20;66.27
34235;BME280;20500;49.856;20.290;2023-02-10T08:54:04;100699.94;;;-2.08;66.22
34235;BME280;20500;49.856;20.290;2023-02-10T08:57:10;100705.66;;;-1.95;66.25
34235;BME280;20500;49.856;20.290;2023-02-10T09:00:17;100702.85;;;-1.83;66.27
34235;BME280;20500;49.856;20.290;2023-02-10T09:03:25;100700.89;;;-1.70;66.12
34235;BME280;20500;49.856;20.290;2023-02-10T09:06:34;100703.98;;;-1.56;66.14
34235;BME280;20500;49.856;20.290;2023-02-10T09:09:43;100703.35;;;-1.41;66.05
34235;BME280;20500;49.856;20.290;2023-02-10T09:12:48;100707.41;;;-1.27;66.09
34235;BME280;20500;49.856;20.290;2023-02-10T09:15:54;100712.23;;;-1.15;66.05
34235;BME280;20500;49.856;20.290;2023-02-10T09:19:01;100707.62;;;-1.04;65.99
34235;BME280;20500;49.856;20.290;2023-02-10T09:22:08;100703.91;;;-0.89;65.96
34235;BME280;20500;49.856;20.290;2023-02-10T09:25:12;100711.81;;;-0.74;65.82
34235;BME280;20500;49.856;20.290;2023-02-10T09:28:19;100713.14;;;-0.61;65.82
34235;BME280;20500;49.856;20.290;2023-02-10T09:31:26;100715.66;;;-0.46;65.66
34235;BME280;20500;49.856;20.290;2023-02-10T09:34:30;100715.95;;;-0.33;65.50
34235;BME280;20500;49.856;20.290;2023-02-10T09:37:37;100715.55;;;-0.21;65.40
34235;BME280;20500;49.856;20.290;2023-02-10T09:40:49;100705.73;;;-0.10;65.46
34235;BME280;20500;49.856;20.290;2023-02-10T09:44:08;100707.94;;;-0.00;65.37
34235;BME280;20500;49.856;20.290;2023-02-10T09:47:38;100709.47;;;0.09;65.32
34235;BME280;20500;49.856;20.290;2023-02-10T09:50:57;100711.35;;;0.18;65.13
34235;BME280;20500;49.856;20.290;2023-02-10T09:54:09;100707.71;;;0.26;65.02
34235;BME280;20500;49.856;20.290;2023-02-10T09:57:18;100697.14;;;0.34;65.03
34235;BME280;20500;49.856;20.290;2023-02-10T10:00:30;100690.10;;;0.42;64.85
34235;BME280;20500;49.856;20.290;2023-02-10T10:03:45;100686.64;;;0.51;64.90
34235;BME280;20500;49.856;20.290;2023-02-10T10:06:55;100683.94;;;0.58;64.87
34235;BME280;20500;49.856;20.290;2023-02-10T10:10:12;100684.91;;;0.67;64.90
34235;BME280;20500;49.856;20.290;2023-02-10T10:13:24;100681.32;;;0.77;64.68
34235;BME280;20500;49.856;20.290;2023-02-10T10:16:47;100676.98;;;0.88;64.57
34235;BME280;20500;49.856;20.290;2023-02-10T10:20:13;100675.08;;;1.01;64.53
34235;BME280;20500;49.856;20.290;2023-02-10T10:23:40;100676.06;;;1.16;64.55
34235;BME280;20500;49.856;20.290;2023-02-10T10:26:58;100670.84;;;1.30;64.46
34235;BME280;20500;49.856;20.290;2023-02-10T10:30:13;100672.02;;;1.41;64.32
34235;BME280;20500;49.856;20.290;2023-02-10T10:33:25;100671.44;;;1.51;64.35
34235;BME280;20500;49.856;20.290;2023-02-10T10:36:38;100677.39;;;1.66;64.31
34235;BME280;20500;49.856;20.290;2023-02-10T10:39:46;100681.06;;;1.77;64.12
34235;BME280;20500;49.856;20.290;2023-02-10T10:42:55;100672.26;;;1.87;64.03
34235;BME280;20500;49.856;20.290;2023-02-10T10:46:11;100663.56;;;1.99;63.88
34235;BME280;20500;49.856;20.290;2023-02-10T10:49:18;100661.13;;;2.10;63.88
34235;BME280;20500;49.856;20.290;2023-02-10T10:52:30;100660.77;;;2.19;63.83
34235;BME280;20500;49.856;20.290;2023-02-10T10:55:40;100655.41;;;2.22;63.66
34235;BME280;20500;49.856;20.290;2023-02-10T10:58:48;100659.89;;;2.28;63.61
34235;BME280;20500;49.856;20.290;2023-02-10T11:01:55;100667.48;;;2.42;63.58
34235;BME280;20500;49.856;20.290;2023-02-10T11:05:11;100670.81;;;2.58;63.44
34235;BME280;20500;49.856;20.290;2023-02-10T11:08:24;100661.16;;;2.78;63.50
34235;BME280;20500;49.856;20.290;2023-02-10T11:11:36;100654.64;;;2.97;63.39
34235;BME280;20500;49.856;20.290;2023-02-10T11:14:46;100652.63;;;3.12;63.26
34235;BME280;20500;49.856;20.290;2023-02-10T11:17:55;100646.05;;;3.22;63.14
34235;BME280;20500;49.856;20.290;2023-02-10T11:21:04;100646.98;;;3.30;63.10
34235;BME280;20500;49.856;20.290;2023-02-10T11:24:20;100651.82;;;3.39;63.07
34235;BME280;20500;49.856;20.290;2023-02-10T11:27:26;100646.27;;;3.53;62.95
34235;BME280;20500;49.856;20.290;2023-02-10T11:30:31;100640.47;;;3.67;62.97
34235;BME280;20500;49.856;20.290;2023-02-10T11:33:38;100634.92;;;3.81;62.87
34235;BME280;20500;49.856;20.290;2023-02-10T11:36:45;100631.08;;;3.96;62.83
34235;BME280;20500;49.856;20.290;2023-02-10T11:39:53;100628.76;;;4.09;62.48
34235;BME280;20500;49.856;20.290;2023-02-10T11:43:00;100630.02;;;4.11;62.18
34235;BME280;20500;49.856;20.290;2023-02-10T11:46:15;100630.73;;;4.14;62.28
34235;BME280;20500;49.856;20.290;2023-02-10T11:49:24;100629.61;;;4.18;62.24
34235;BME280;20500;49.856;20.290;2023-02-10T11:52:35;100633.30;;;4.19;62.06
34235;BME280;20500;49.856;20.290;2023-02-10T11:55:42;100632.47;;;4.21;62.04
34235;BME280;20500;49.856;20.290;2023-02-10T11:59:03;100628.64;;;4.19;61.73
34235;BME280;20500;49.856;20.290;2023-02-10T12:02:16;100629.36;;;4.19;61.76
34235;BME280;20500;49.856;20.290;2023-02-10T12:05:30;100630.79;;;4.16;61.70
34235;BME280;20500;49.856;20.290;2023-02-10T12:08:45;100628.92;;;4.17;61.71
34235;BME280;20500;49.856;20.290;2023-02-10T12:12:03;100626.62;;;4.20;61.54
34235;BME280;20500;49.856;20.290;2023-02-10T12:15:19;100620.79;;;4.21;61.40
34235;BME280;20500;49.856;20.290;2023-02-10T12:18:39;100618.52;;;4.22;61.32
34235;BME280;20500;49.856;20.290;2023-02-10T12:22:07;100619.58;;;4.22;61.13
34235;BME280;20500;49.856;20.290;2023-02-10T12:25:21;100618.67;;;4.23;61.04
34235;BME280;20500;49.856;20.290;2023-02-10T12:28:36;100619.52;;;4.29;60.91
34235;BME280;20500;49.856;20.290;2023-02-10T12:31:53;100615.40;;;4.39;61.00
34235;BME280;20500;49.856;20.290;2023-02-10T12:35:14;100610.29;;;4.46;61.02
34235;BME280;20500;49.856;20.290;2023-02-10T12:38:40;100612.49;;;4.53;60.80
34235;BME280;20500;49.856;20.290;2023-02-10T12:41:58;100609.01;;;4.51;60.77
34235;BME280;20500;49.856;20.290;2023-02-10T12:45:16;100609.73;;;4.48;60.31
34235;BME280;20500;49.856;20.290;2023-02-10T12:48:29;100612.43;;;4.43;60.42
34235;BME280;20500;49.856;20.290;2023-02-10T12:51:51;100610.32;;;4.37;60.43
34235;BME280;20500;49.856;20.290;2023-02-10T12:55:10;100609.17;;;4.33;60.28
34235;BME280;20500;49.856;20.290;2023-02-10T12:58:23;100613.14;;;4.30;60.25
34235;BME280;20500;49.856;20.290;2023-02-10T13:01:35;100618.20;;;4.32;60.19
34235;BME280;20500;49.856;20.290;2023-02-10T13:04:46;100618.23;;;4.37;60.21
34235;BME280;20500;49.856;20.290;2023-02-10T13:07:56;100620.98;;;4.41;60.25
34235;BME280;20500;49.856;20.290;2023-02-10T13:11:09;100617.80;;;4.46;59.90
34235;BME280;20500;49.856;20.290;2023-02-10T13:14:23;100616.91;;;4.43;59.71
34235;BME280;20500;49.856;20.290;2023-02-10T13:17:37;100621.90;;;4.41;59.74
34235;BME280;20500;49.856;20.290;2023-02-10T13:20:51;100628.37;;;4.41;59.70
34235;BME280;20500;49.856;20.290;2023-02-10T13:24:04;100627.42;;;4.39;59.68
34235;BME280;20500;49.856;20.290;2023-02-10T13:27:24;100623.95;;;4.40;59.65
34235;BME280;20500;49.856;20.290;2023-02-10T13:30:55;100624.71;;;4.42;59.50
34235;BME280;20500;49.856;20.290;2023-02-10T13:34:18;100618.11;;;4.47;59.54
34235;BME280;20500;49.856;20.290;2023-02-10T13:37:30;100621.39;;;4.49;59.42
34235;BME280;20500;49.856;20.290;2023-02-10T13:40:49;100626.52;;;4.50;59.44
34235;BME280;20500;49.856;20.290;2023-02-10T13:43:58;100629.73;;;4.51;59.26
34235;BME280;20500;49.856;20.290;2023-02-10T13:47:19;100629.31;;;4.59;59.41
34235;BME280;20500;49.856;20.290;2023-02-10T13:50:41;100630.09;;;4.66;59.27
34235;BME280;20500;49.856;20.290;2023-02-10T13:53:48;100634.08;;;4.63;59.06
34235;BME280;20500;49.856;20.290;2023-02-10T13:56:56;100635.52;;;4.52;58.96
34235;BME280;20500;49.856;20.290;2023-02-10T14:00:18;100636.05;;;4.40;58.90
34235;BME280;20500;49.856;20.290;2023-02-10T14:03:26;100642.09;;;4.22;58.89
34235;BME280;20500;49.856;20.290;2023-02-10T14:06:37;100639.87;;;4.09;58.76
34235;BME280;20500;49.856;20.290;2023-02-10T14:09:46;100641.02;;;3.97;58.76
34235;BME280;20500;49.856;20.290;2023-02-10T14:12:57;100643.50;;;3.90;58.76
34235;BME280;20500;49.856;20.290;2023-02-10T14:16:07;100643.31;;;3.82;58.66
34235;BME280;20500;49.856;20.290;2023-02-10T14:19:24;100650.95;;;3.72;58.64
34235;BME280;20500;49.856;20.290;2023-02-10T14:22:35;100654.67;;;3.62;58.49
34235;BME280;20500;49.856;20.290;2023-02-10T14:25:43;100654.16;;;3.53;58.42
34235;BME280;20500;49.856;20.290;2023-02-10T14:28:55;100654.98;;;3.49;58.44
34235;BME280;20500;49.856;20.290;2023-02-10T14:32:04;100654.79;;;3.46;58.37
34235;BME280;20500;49.856;20.290;2023-02-10T14:35:18;100657.86;;;3.43;58.36
34235;BME280;20500;49.856;20.290;2023-02-10T14:38:33;100660.77;;;3.33;58.26
34235;BME280;20500;49.856;20.290;2023-02-10T14:41:40;100664.20;;;3.25;58.24
34235;BME280;20500;49.856;20.290;2023-02-10T14:44:49;100670.97;;;3.20;58.31
34235;BME280;20500;49.856;20.290;2023-02-10T14:47:57;100677.52;;;3.13;58.15
34235;BME280;20500;49.856;20.290;2023-02-10T14:51:07;100676.73;;;3.02;58.08
34235;BME280;20500;49.856;20.290;2023-02-10T14:54:24;100680.88;;;2.93;58.03
34235;BME280;20500;49.856;20.290;2023-02-10T14:57:30;100684.14;;;2.83;58.03
34235;BME280;20500;49.856;20.290;2023-02-10T15:00:37;100689.91;;;2.74;58.00
34235;BME280;20500;49.856;20.290;2023-02-10T15:03:45;100693.11;;;2.63;57.89
34235;BME280;20500;49.856;20.290;2023-02-10T15:06:53;100695.02;;;2.52;57.94
34235;BME280;20500;49.856;20.290;2023-02-10T15:10:05;100702.59;;;2.42;58.00
34235;BME280;20500;49.856;20.290;2023-02-10T15:13:19;100707.83;;;2.29;57.98
34235;BME280;20500;49.856;20.290;2023-02-10T15:16:28;100706.95;;;2.16;58.02
34235;BME280;20500;49.856;20.290;2023-02-10T15:19:36;100711.64;;;2.07;58.15
34235;BME280;20500;49.856;20.290;2023-02-10T15:22:43;100722.96;;;1.96;58.16
34235;BME280;20500;49.856;20.290;2023-02-10T15:26:01;100722.67;;;1.89;58.25
34235;BME280;20500;49.856;20.290;2023-02-10T15:29:11;100727.63;;;1.83;58.22
34235;BME280;20500;49.856;20.290;2023-02-10T15:32:20;100726.85;;;1.78;58.20
34235;BME280;20500;49.856;20.290;2023-02-10T15:35:27;100733.64;;;1.72;58.13
34235;BME280;20500;49.856;20.290;2023-02-10T15:38:34;100733.73;;;1.67;58.35
34235;BME280;20500;49.856;20.290;2023-02-10T15:41:59;100727.50;;;1.63;58.33
34235;BME280;20500;49.856;20.290;2023-02-10T15:45:15;100726.20;;;1.61;58.29
34235;BME280;20500;49.856;20.290;2023-02-10T15:48:23;100726.85;;;1.59;58.23
34235;BME280;20500;49.856;20.290;2023-02-10T15:51:45;100727.84;;;1.57;58.22
34235;BME280;20500;49.856;20.290;2023-02-10T15:54:54;100726.11;;;1.56;58.30
34235;BME280;20500;49.856;20.290;2023-02-10T15:58:00;100732.88;;;1.54;58.23
34235;BME280;20500;49.856;20.290;2023-02-10T16:01:07;100738.81;;;1.53;58.32
34235;BME280;20500;49.856;20.290;2023-02-10T16:04:12;100746.30;;;1.54;58.39
34235;BME280;20500;49.856;20.290;2023-02-10T16:07:24;100748.29;;;1.53;58.40
34235;BME280;20500;49.856;20.290;2023-02-10T16:10:32;100752.04;;;1.53;58.41
34235;BME280;20500;49.856;20.290;2023-02-10T16:13:38;100752.42;;;1.53;58.50
34235;BME280;20500;49.856;20.290;2023-02-10T16:16:44;100759.59;;;1.52;58.53
34235;BME280;20500;49.856;20.290;2023-02-10T16:19:53;100755.59;;;1.50;58.51
34235;BME280;20500;49.856;20.290;2023-02-10T16:22:59;100757.21;;;1.46;58.50
34235;BME280;20500;49.856;20.290;2023-02-10T16:26:20;100760.39;;;1.44;58.64